createdAt,value
2022-11-06T00:01:11.546Z,96810.34
2022-11-06T00:03:40.982Z,96814.53
2022-11-06T00:06:27.688Z,96810.19
2022-11-06T00:08:54.959Z,96815.38
2022-11-06T00:11:22.336Z,96820.22
2022-11-06T00:13:49.759Z,96815.75
2022-11-06T00:16:16.659Z,96822.41
2022-11-06T00:18:43.439Z,96818.84
2022-11-06T00:21:11.991Z,96814.78
2022-11-06T00:23:39.256Z,96804.03
2022-11-06T00:26:06.941Z,96800.41
2022-11-06T00:28:33.777Z,96802.41
2022-11-06T00:31:04.962Z,96794.19
2022-11-06T00:33:31.995Z,96793.16
2022-11-06T00:35:59.124Z,96800.34
2022-11-06T00:38:26.006Z,96792.19
2022-11-06T00:40:52.835Z,96802.63
2022-11-06T00:43:19.643Z,96801.91
2022-11-06T00:45:46.697Z,96795.31
2022-11-06T00:48:13.706Z,96806.34
2022-11-06T00:50:40.799Z,96805.13
2022-11-06T00:53:07.621Z,96805.09
2022-11-06T00:55:39.614Z,96795.59
2022-11-06T00:58:06.655Z,96801.00
2022-11-06T01:00:33.488Z,96805.97
2022-11-06T01:03:00.456Z,96809.03
2022-11-06T01:05:27.742Z,96814.59
2022-11-06T01:07:54.947Z,96809.88
2022-11-06T01:10:23.142Z,96809.88
2022-11-06T01:12:52.993Z,96807.56
2022-11-06T01:15:21.208Z,96808.63
2022-11-06T01:17:50.083Z,96823.53
2022-11-06T01:20:17.889Z,96823.63
2022-11-06T01:22:48.138Z,96822.28
2022-11-06T01:25:18.257Z,96822.03
2022-11-06T01:27:47.661Z,96825.50
2022-11-06T01:30:15.910Z,96827.50
2022-11-06T01:32:43.435Z,96829.00
2022-11-06T01:35:11.059Z,96827.38
2022-11-06T01:37:38.817Z,96818.47
2022-11-06T01:40:06.727Z,96822.94
2022-11-06T01:42:33.921Z,96818.47
2022-11-06T01:45:25.775Z,96822.44
2022-11-06T01:47:52.688Z,96824.06
2022-11-06T01:50:19.791Z,96823.41
2022-11-06T01:52:47.909Z,96836.44
2022-11-06T01:55:18.346Z,96843.19
2022-11-06T01:57:46.415Z,96845.19
2022-11-06T02:00:13.587Z,96846.19
2022-11-06T02:02:40.960Z,96839.25
2022-11-06T02:05:08.572Z,96840.38
2022-11-06T02:07:38.490Z,96830.16
2022-11-06T02:10:07.094Z,96839.22
2022-11-06T02:12:37.244Z,96843.84
2022-11-06T02:15:24.563Z,96838.56
2022-11-06T02:18:05.389Z,96840.56
2022-11-06T02:20:42.419Z,96842.50
2022-11-06T02:23:09.441Z,96850.78
2022-11-06T02:25:46.431Z,96852.75
2022-11-06T02:28:22.721Z,96850.75
2022-11-06T02:30:50.092Z,96849.63
2022-11-06T02:33:19.497Z,96856.06
2022-11-06T02:35:52.768Z,96854.41
2022-11-06T02:38:25.184Z,96856.22
2022-11-06T02:40:55.515Z,96864.97
2022-11-06T02:43:26.597Z,96868.75
2022-11-06T02:45:58.825Z,96867.28
2022-11-06T02:48:38.143Z,96872.88
2022-11-06T02:51:07.548Z,96875.00
2022-11-06T02:53:38.102Z,96867.72
2022-11-06T02:56:09.536Z,96867.22
2022-11-06T02:58:39.102Z,96868.72
2022-11-06T03:01:13.965Z,96877.94
2022-11-06T03:03:47.768Z,96883.34
2022-11-06T03:06:20.098Z,96878.06
2022-11-06T03:08:49.053Z,96884.03
2022-11-06T03:11:22.101Z,96882.31
2022-11-06T03:13:56.785Z,96886.56
2022-11-06T03:16:44.403Z,96889.38
2022-11-06T03:19:20.362Z,96888.06
2022-11-06T03:21:50.270Z,96890.81
2022-11-06T03:24:19.517Z,96898.59
2022-11-06T03:26:49.160Z,96913.09
2022-11-06T03:29:22.116Z,96909.56
2022-11-06T03:31:54.237Z,96897.78
2022-11-06T03:34:32.158Z,96925.66
2022-11-06T03:37:20.341Z,96933.56
2022-11-06T03:39:50.748Z,96937.16
2022-11-06T03:42:21.427Z,96930.88
2022-11-06T03:44:51.617Z,96933.16
2022-11-06T03:47:23.497Z,96938.41
2022-11-06T03:49:54.519Z,96938.41
2022-11-06T03:52:35.696Z,96944.06
2022-11-06T03:55:11.718Z,96954.94
2022-11-06T03:57:44.210Z,96950.69
2022-11-06T04:00:11.643Z,96951.28
2022-11-06T04:02:40.623Z,96958.94
2022-11-06T04:05:10.779Z,96958.41
2022-11-06T04:07:41.833Z,96950.34
2022-11-06T04:10:46.657Z,96963.47
2022-11-06T04:13:32.201Z,96960.44
2022-11-06T04:15:59.218Z,96957.44
2022-11-06T04:18:26.053Z,96958.03
2022-11-06T04:21:25.162Z,96959.63
2022-11-06T04:24:16.608Z,96959.47
2022-11-06T04:26:54.275Z,96957.16
2022-11-06T04:29:35.309Z,96957.47
2022-11-06T04:32:34.335Z,96959.50
2022-11-06T04:35:01.192Z,96957.13
2022-11-06T04:37:43.376Z,96961.69
2022-11-06T04:40:11.348Z,96967.25
2022-11-06T04:43:03.187Z,96968.94
2022-11-06T04:45:38.850Z,96961.84
2022-11-06T04:48:07.545Z,96967.25
2022-11-06T04:53:34.162Z,96968.00
2022-11-06T04:56:09.991Z,96968.84
2022-11-06T04:58:37.456Z,96969.53
2022-11-06T05:01:05.212Z,96975.22
2022-11-06T05:03:32.678Z,96964.56
2022-11-06T05:06:01.697Z,96967.31
2022-11-06T05:08:31.340Z,96967.84
2022-11-06T05:11:00.139Z,96971.75
2022-11-06T05:13:29.113Z,96980.22
2022-11-06T05:15:58.529Z,96980.63
2022-11-06T05:18:27.857Z,96980.34
2022-11-06T05:21:15.699Z,96979.00
2022-11-06T05:23:43.631Z,96990.59
2022-11-06T05:26:13.029Z,96987.81
2022-11-06T05:28:42.325Z,96990.00
2022-11-06T05:31:10.517Z,96989.31
2022-11-06T05:33:38.296Z,96986.97
2022-11-06T05:36:06.396Z,96989.31
2022-11-06T05:38:34.339Z,96991.97
2022-11-06T05:41:01.682Z,96990.16
2022-11-06T05:43:30.563Z,97000.53
2022-11-06T05:45:59.443Z,97005.22
2022-11-06T05:48:27.453Z,97001.47
2022-11-06T05:50:55.312Z,97004.63
2022-11-06T05:53:24.012Z,97006.00
2022-11-06T05:55:51.454Z,97017.59
2022-11-06T05:58:19.435Z,97018.06
2022-11-06T06:00:47.287Z,97014.28
2022-11-06T06:03:15.270Z,97017.97
2022-11-06T06:05:43.929Z,97022.91
2022-11-06T06:08:11.829Z,97023.16
2022-11-06T06:10:46.980Z,97026.41
2022-11-06T06:13:15.246Z,97033.06
2022-11-06T06:15:43.176Z,97031.84
2022-11-06T06:18:11.728Z,97030.91
2022-11-06T06:20:39.664Z,97038.53
2022-11-06T06:23:09.468Z,97041.28
2022-11-06T06:25:37.947Z,97044.34
2022-11-06T06:28:06.074Z,97049.34
2022-11-06T06:30:33.329Z,97049.84
2022-11-06T06:33:05.393Z,97046.16
2022-11-06T06:35:32.913Z,97048.84
2022-11-06T06:38:00.974Z,97050.88
2022-11-06T06:40:30.402Z,97052.56
2022-11-06T06:42:59.062Z,97054.94
2022-11-06T06:45:26.708Z,97054.66
2022-11-06T06:47:53.965Z,97060.97
2022-11-06T06:50:21.962Z,97058.69
2022-11-06T06:52:48.914Z,97063.84
2022-11-06T06:55:15.767Z,97070.16
2022-11-06T06:57:42.592Z,97070.88
2022-11-06T07:00:09.774Z,97068.94
2022-11-06T07:02:36.564Z,97072.31
2022-11-06T07:05:03.409Z,97070.50
2022-11-06T07:07:30.334Z,97065.13
2022-11-06T07:09:57.089Z,97068.94
2022-11-06T07:12:24.129Z,97072.25
2022-11-06T07:14:50.878Z,97077.06
2022-11-06T07:17:18.309Z,97072.94
2022-11-06T07:19:45.347Z,97070.31
2022-11-06T07:22:12.392Z,97067.19
2022-11-06T07:24:40.282Z,97068.69
2022-11-06T07:27:07.518Z,97079.66
2022-11-06T07:29:34.685Z,97071.38
2022-11-06T07:32:02.092Z,97079.97
2022-11-06T07:34:28.892Z,97081.00
2022-11-06T07:36:56.125Z,97073.19
2022-11-06T07:39:23.849Z,97069.72
2022-11-06T07:41:51.431Z,97065.06
2022-11-06T07:44:18.610Z,97069.38
2022-11-06T07:46:45.937Z,97071.72
2022-11-06T07:49:15.047Z,97064.91
2022-11-06T07:51:45.187Z,97069.69
2022-11-06T07:54:13.351Z,97060.72
2022-11-06T07:56:40.280Z,97063.50
2022-11-06T07:59:07.202Z,97066.31
2022-11-06T08:01:34.083Z,97063.63
2022-11-06T08:04:01.358Z,97059.25
2022-11-06T08:06:28.289Z,97057.16
2022-11-06T08:08:58.892Z,97056.63
2022-11-06T08:11:26.295Z,97060.88
2022-11-06T08:13:53.073Z,97064.69
2022-11-06T08:16:19.802Z,97066.94
2022-11-06T08:18:49.662Z,97074.78
2022-11-06T08:21:16.501Z,97068.88
2022-11-06T08:23:43.589Z,97056.94
2022-11-06T08:26:11.268Z,97063.09
2022-11-06T08:28:38.598Z,97066.16
2022-11-06T08:31:06.603Z,97053.91
2022-11-06T08:33:34.170Z,97052.03
2022-11-06T08:36:02.748Z,97051.56
2022-11-06T08:38:29.741Z,97051.28
2022-11-06T08:40:56.684Z,97050.72
2022-11-06T08:43:26.683Z,97051.16
2022-11-06T08:45:54.093Z,97049.00
2022-11-06T08:48:20.857Z,97056.97
2022-11-06T08:50:47.856Z,97041.72
2022-11-06T08:53:17.266Z,97044.00
2022-11-06T08:55:44.552Z,97051.06
2022-11-06T08:58:11.551Z,97044.53
2022-11-06T09:00:38.496Z,97048.28
2022-11-06T09:03:06.911Z,97046.88
2022-11-06T09:05:34.192Z,97040.16
2022-11-06T09:08:00.974Z,97046.19
2022-11-06T09:10:28.188Z,97046.44
2022-11-06T09:12:56.000Z,97043.63
2022-11-06T09:15:23.094Z,97042.22
2022-11-06T09:17:50.928Z,97048.22
2022-11-06T09:20:21.976Z,97046.94
2022-11-06T09:22:48.826Z,97044.53
2022-11-06T09:25:15.624Z,97049.47
2022-11-06T09:27:55.714Z,97052.38
2022-11-06T09:30:26.417Z,97052.44
2022-11-06T09:32:54.689Z,97045.91
2022-11-06T09:35:22.976Z,97050.63
2022-11-06T09:37:50.337Z,97052.47
2022-11-06T09:40:26.422Z,97055.16
2022-11-06T09:43:08.178Z,97056.78
2022-11-06T09:45:38.111Z,97051.47
2022-11-06T09:48:12.030Z,97055.00
2022-11-06T09:50:49.278Z,97048.84
2022-11-06T09:53:20.479Z,97050.94
2022-11-06T09:55:49.184Z,97047.66
2022-11-06T09:58:22.260Z,97053.59
2022-11-06T10:00:51.906Z,97048.50
2022-11-06T10:03:24.103Z,97048.50
2022-11-06T10:05:52.540Z,97050.97
2022-11-06T10:08:19.527Z,97046.09
2022-11-06T10:11:04.051Z,97042.41
2022-11-06T10:13:34.379Z,97050.03
2022-11-06T10:16:12.707Z,97039.19
2022-11-06T10:18:45.730Z,97046.59
2022-11-06T10:21:18.598Z,97048.88
2022-11-06T10:23:50.673Z,97047.47
2022-11-06T10:26:18.791Z,97045.41
2022-11-06T10:28:48.385Z,97048.72
2022-11-06T10:31:34.140Z,97050.78
2022-11-06T10:34:15.541Z,97049.09
2022-11-06T10:36:49.539Z,97054.81
2022-11-06T10:39:25.310Z,97050.34
2022-11-06T10:41:59.219Z,97047.47
2022-11-06T10:44:31.376Z,97051.53
2022-11-06T10:47:04.227Z,97045.81
2022-11-06T10:49:35.641Z,97046.38
2022-11-06T10:52:02.356Z,97044.78
2022-11-06T10:54:35.344Z,97042.50
2022-11-06T10:57:09.684Z,97053.94
2022-11-06T10:59:39.438Z,97041.22
2022-11-06T11:02:20.733Z,97042.38
2022-11-06T11:04:47.582Z,97048.50
2022-11-06T11:07:21.432Z,97043.56
2022-11-06T11:09:50.892Z,97048.41
2022-11-06T11:12:23.833Z,97045.91
2022-11-06T11:15:09.501Z,97045.94
2022-11-06T11:17:36.442Z,97051.28
2022-11-06T11:20:03.342Z,97046.78
2022-11-06T11:22:33.119Z,97045.13
2022-11-06T11:25:01.026Z,97042.59
2022-11-06T11:27:28.857Z,97036.06
2022-11-06T11:29:56.374Z,97043.47
2022-11-06T11:32:23.668Z,97040.56
2022-11-06T11:34:56.453Z,97043.22
2022-11-06T11:37:26.183Z,97036.50
2022-11-06T11:39:52.922Z,97043.47
2022-11-06T11:42:28.169Z,97039.38
2022-11-06T11:45:07.007Z,97041.44
2022-11-06T11:47:33.911Z,97042.41
2022-11-06T11:50:19.469Z,97032.13
2022-11-06T11:52:47.640Z,97040.56
2022-11-06T11:55:18.879Z,97032.41
2022-11-06T11:57:48.696Z,97036.72
2022-11-06T12:00:17.609Z,97028.72
2022-11-06T12:02:48.556Z,97022.63
2022-11-06T12:05:38.458Z,97025.94
2022-11-06T12:08:06.780Z,97025.94
2022-11-06T12:10:41.272Z,97034.97
2022-11-06T12:13:14.380Z,97031.94
2022-11-06T12:15:59.856Z,97037.94
2022-11-06T12:18:30.003Z,97022.81
2022-11-06T12:21:07.455Z,97036.34
2022-11-06T12:23:41.369Z,97038.44
2022-11-06T12:26:12.378Z,97038.88
2022-11-06T12:28:41.253Z,97046.69
2022-11-06T12:31:16.420Z,97040.78
2022-11-06T12:34:05.663Z,97041.00
2022-11-06T12:36:39.645Z,97044.16
2022-11-06T12:39:19.038Z,97040.44
2022-11-06T12:41:48.397Z,97041.88
2022-11-06T12:44:16.530Z,97046.81
2022-11-06T12:46:49.848Z,97046.19
2022-11-06T12:49:36.507Z,97049.28
2022-11-06T12:52:03.339Z,97046.81
2022-11-06T12:54:30.230Z,97054.19
2022-11-06T12:57:15.593Z,97049.28
2022-11-06T13:00:01.087Z,97038.38
2022-11-06T13:02:28.112Z,97044.31
2022-11-06T13:05:13.695Z,97050.47
2022-11-06T13:07:47.899Z,97047.00
2022-11-06T13:10:33.217Z,97045.09
2022-11-06T13:13:03.003Z,97053.28
2022-11-06T13:15:38.270Z,97049.13
2022-11-06T13:18:14.446Z,97052.84
2022-11-06T13:21:00.870Z,97051.59
2022-11-06T13:23:43.516Z,97048.06
2022-11-06T13:26:17.616Z,97049.09
2022-11-06T13:28:51.064Z,97047.69
2022-11-06T13:31:20.794Z,97058.75
2022-11-06T13:33:49.777Z,97047.47
2022-11-06T13:36:17.530Z,97064.66
2022-11-06T13:39:01.035Z,97051.53
2022-11-06T13:41:30.108Z,97059.75
2022-11-06T13:43:59.839Z,97060.38
2022-11-06T13:46:47.551Z,97061.19
2022-11-06T13:49:18.497Z,97068.56
2022-11-06T13:51:57.278Z,97060.94
2022-11-06T13:54:30.098Z,97068.09
2022-11-06T13:56:59.996Z,97070.47
2022-11-06T13:59:45.398Z,97075.56
2022-11-06T14:02:12.315Z,97070.22
2022-11-06T14:04:39.301Z,97078.84
2022-11-06T14:07:07.648Z,97075.31
2022-11-06T14:09:35.907Z,97079.13
2022-11-06T14:12:05.462Z,97082.56
2022-11-06T14:14:33.434Z,97086.50
2022-11-06T14:17:09.763Z,97083.97
2022-11-06T14:19:37.104Z,97080.31
2022-11-06T14:22:13.263Z,97082.25
2022-11-06T14:24:40.981Z,97089.22
2022-11-06T14:27:12.758Z,97082.56
2022-11-06T14:29:39.615Z,97076.75
2022-11-06T14:32:10.768Z,97082.97
2022-11-06T14:34:42.141Z,97081.78
2022-11-06T14:37:32.607Z,97082.56
2022-11-06T14:39:59.567Z,97083.41
2022-11-06T14:42:32.799Z,97073.25
2022-11-06T14:45:10.445Z,97083.34
2022-11-06T14:47:37.531Z,97088.13
2022-11-06T14:50:10.107Z,97086.38
2022-11-06T14:55:43.177Z,97103.88
2022-11-06T14:58:21.245Z,97096.34
2022-11-06T15:00:56.179Z,97100.81
2022-11-06T15:03:23.369Z,97100.59
2022-11-06T15:05:52.756Z,97103.03
2022-11-06T15:08:38.618Z,97104.47
2022-11-06T15:11:07.529Z,97100.56
2022-11-06T15:13:34.392Z,97105.66
2022-11-06T15:16:03.801Z,97108.03
2022-11-06T15:18:33.321Z,97106.44
2022-11-06T15:21:06.226Z,97101.19
2022-11-06T15:23:54.911Z,97109.88
2022-11-06T15:26:27.688Z,97104.66
2022-11-06T15:29:00.600Z,97116.59
2022-11-06T15:31:29.100Z,97124.59
2022-11-06T15:34:04.374Z,97133.72
2022-11-06T15:36:39.663Z,97140.88
2022-11-06T15:39:23.604Z,97140.88
2022-11-06T15:41:52.452Z,97133.63
2022-11-06T15:44:20.314Z,97142.06
2022-11-06T15:46:54.196Z,97156.13
2022-11-06T15:49:21.457Z,97156.09
2022-11-06T15:51:53.081Z,97154.78
2022-11-06T15:54:32.350Z,97153.47
2022-11-06T15:57:00.665Z,97162.56
2022-11-06T15:59:27.925Z,97172.78
2022-11-06T16:01:55.251Z,97173.78
2022-11-06T16:04:23.522Z,97185.50
2022-11-06T16:06:52.577Z,97177.88
2022-11-06T16:09:21.817Z,97184.47
2022-11-06T16:11:50.284Z,97179.47
2022-11-06T16:14:18.222Z,97192.03
2022-11-06T16:16:47.785Z,97197.91
2022-11-06T16:19:24.041Z,97201.00
2022-11-06T16:22:03.485Z,97207.44
2022-11-06T16:24:32.940Z,97204.72
2022-11-06T16:27:00.698Z,97213.91
2022-11-06T16:29:28.702Z,97218.53
2022-11-06T16:32:00.421Z,97211.59
2022-11-06T16:34:35.359Z,97218.53
2022-11-06T16:37:06.546Z,97233.56
2022-11-06T16:39:49.121Z,97228.81
2022-11-06T16:42:25.455Z,97231.38
2022-11-06T16:45:00.521Z,97235.00
2022-11-06T16:47:27.524Z,97238.41
2022-11-06T16:49:55.696Z,97238.72
2022-11-06T16:52:25.716Z,97248.47
2022-11-06T16:54:55.977Z,97247.78
2022-11-06T16:57:27.817Z,97249.91
2022-11-06T16:59:58.359Z,97246.59
2022-11-06T17:02:30.653Z,97246.53
2022-11-06T17:05:12.967Z,97259.50
2022-11-06T17:07:41.975Z,97263.16
2022-11-06T17:10:39.610Z,97261.47
2022-11-06T17:13:13.521Z,97260.56
2022-11-06T17:15:43.016Z,97261.63
2022-11-06T17:18:22.781Z,97265.25
2022-11-06T17:20:59.168Z,97278.59
2022-11-06T17:23:28.293Z,97275.06
2022-11-06T17:26:00.264Z,97281.16
2022-11-06T17:28:31.265Z,97286.44
2022-11-06T17:31:02.708Z,97286.44
2022-11-06T17:33:31.178Z,97288.56
2022-11-06T17:36:01.662Z,97295.41
2022-11-06T17:38:30.786Z,97295.56
2022-11-06T17:40:59.164Z,97301.31
2022-11-06T17:43:27.970Z,97301.19
2022-11-06T17:45:56.497Z,97297.72
2022-11-06T17:48:26.271Z,97305.25
2022-11-06T17:51:15.011Z,97309.03
2022-11-06T17:53:44.149Z,97306.97
2022-11-06T17:56:14.665Z,97310.88
2022-11-06T17:58:43.628Z,97306.78
2022-11-06T18:01:12.032Z,97312.75
2022-11-06T18:03:44.549Z,97313.97
2022-11-06T18:06:16.990Z,97322.63
2022-11-06T18:08:45.827Z,97319.56
2022-11-06T18:11:14.269Z,97327.94
2022-11-06T18:13:42.651Z,97333.47
2022-11-06T18:16:22.357Z,97327.78
2022-11-06T18:18:51.212Z,97324.59
2022-11-06T18:21:20.178Z,97334.91
2022-11-06T18:23:49.278Z,97336.56
2022-11-06T18:26:17.324Z,97333.81
2022-11-06T18:28:45.576Z,97341.31
2022-11-06T18:31:13.693Z,97343.56
2022-11-06T18:33:42.341Z,97354.66
2022-11-06T18:36:10.914Z,97351.19
2022-11-06T18:38:39.678Z,97357.56
2022-11-06T18:41:14.370Z,97357.84
2022-11-06T18:43:43.331Z,97366.44
2022-11-06T18:46:13.357Z,97357.56
2022-11-06T18:48:42.390Z,97359.91
2022-11-06T18:51:27.840Z,97353.38
2022-11-06T18:54:03.380Z,97359.75
2022-11-06T18:56:32.374Z,97359.63
2022-11-06T18:59:00.475Z,97356.56
2022-11-06T19:01:30.021Z,97360.44
2022-11-06T19:04:00.355Z,97357.66
2022-11-06T19:06:28.744Z,97360.28
2022-11-06T19:08:57.167Z,97364.31
2022-11-06T19:11:27.062Z,97366.50
2022-11-06T19:13:55.659Z,97374.84
2022-11-06T19:16:24.437Z,97366.78
2022-11-06T19:21:32.185Z,97377.03
2022-11-06T19:24:05.994Z,97370.13
2022-11-06T19:26:36.154Z,97368.44
2022-11-06T19:29:05.977Z,97380.38
2022-11-06T19:31:34.223Z,97372.84
2022-11-06T19:34:02.195Z,97369.28
2022-11-06T19:36:31.404Z,97370.94
2022-11-06T19:38:58.809Z,97380.91
2022-11-06T19:41:29.353Z,97382.97
2022-11-06T19:43:56.097Z,97387.00
2022-11-06T19:46:27.222Z,97392.25
2022-11-06T19:48:56.711Z,97393.63
2022-11-06T19:51:23.572Z,97396.56
2022-11-06T19:53:54.816Z,97397.09
2022-11-06T19:56:25.004Z,97402.09
2022-11-06T19:58:56.108Z,97405.28
2022-11-06T20:01:24.383Z,97403.34
2022-11-06T20:03:53.604Z,97412.34
2022-11-06T20:06:21.707Z,97415.09
2022-11-06T20:08:51.390Z,97416.34
2022-11-06T20:11:19.355Z,97419.66
2022-11-06T20:13:48.348Z,97414.38
2022-11-06T20:16:18.014Z,97415.22
2022-11-06T20:18:51.673Z,97417.44
2022-11-06T20:21:19.599Z,97417.44
2022-11-06T20:23:48.621Z,97421.19
2022-11-06T20:26:16.202Z,97421.84
2022-11-06T20:28:43.919Z,97434.63
2022-11-06T20:31:15.670Z,97434.63
2022-11-06T20:33:42.481Z,97430.72
2022-11-06T20:36:13.262Z,97428.09
2022-11-06T20:38:42.929Z,97428.75
2022-11-06T20:41:13.607Z,97417.38
2022-11-06T20:43:45.185Z,97430.66
2022-11-06T20:46:15.516Z,97428.88
2022-11-06T20:48:46.294Z,97429.84
2022-11-06T20:51:20.388Z,97431.53
2022-11-06T20:53:49.016Z,97433.47
2022-11-06T20:56:19.227Z,97433.19
2022-11-06T20:59:02.768Z,97423.59
2022-11-06T21:01:31.497Z,97428.19
2022-11-06T21:04:00.261Z,97428.88
2022-11-06T21:06:31.836Z,97435.00
2022-11-06T21:09:00.814Z,97438.28
2022-11-06T21:11:31.109Z,97434.84
2022-11-06T21:14:02.757Z,97439.28
2022-11-06T21:16:34.568Z,97435.00
2022-11-06T21:19:07.914Z,97443.75
2022-11-06T21:21:41.996Z,97427.06
2022-11-06T21:24:11.422Z,97436.47
2022-11-06T21:26:42.978Z,97438.25
2022-11-06T21:29:12.775Z,97437.56
2022-11-06T21:31:49.108Z,97435.09
2022-11-06T21:34:20.685Z,97428.97
2022-11-06T21:36:51.165Z,97435.09
2022-11-06T21:39:24.364Z,97442.84
2022-11-06T21:41:52.937Z,97438.16
2022-11-06T21:44:23.061Z,97445.38
2022-11-06T21:46:52.073Z,97442.63
2022-11-06T21:49:20.105Z,97441.47
2022-11-06T21:51:49.511Z,97437.03
2022-11-06T21:54:46.530Z,97443.16
2022-11-06T21:57:14.473Z,97446.75
2022-11-06T21:59:42.622Z,97448.72
2022-11-06T22:02:12.406Z,97442.47
2022-11-06T22:04:41.052Z,97445.09
2022-11-06T22:07:09.718Z,97449.28
2022-11-06T22:09:37.481Z,97448.13
2022-11-06T22:12:10.093Z,97450.94
2022-11-06T22:14:38.788Z,97453.13
2022-11-06T22:17:08.156Z,97453.81
2022-11-06T22:19:37.562Z,97462.56
2022-11-06T22:22:05.836Z,97460.09
2022-11-06T22:24:33.998Z,97463.97
2022-11-06T22:27:02.314Z,97467.59
2022-11-06T22:29:32.331Z,97464.97
2022-11-06T22:32:01.054Z,97467.59
2022-11-06T22:34:29.044Z,97475.69
2022-11-06T22:36:57.626Z,97465.41
2022-11-06T22:39:26.810Z,97460.66
2022-11-06T22:41:56.527Z,97463.16
2022-11-06T22:44:24.884Z,97465.66
2022-11-06T22:46:53.229Z,97467.31
2022-11-06T22:49:21.338Z,97474.25
2022-11-06T22:51:52.336Z,97472.00
2022-11-06T22:54:20.752Z,97475.31
2022-11-06T22:56:49.055Z,97471.03
2022-11-06T22:59:16.889Z,97475.31
2022-11-06T23:01:48.012Z,97478.38
2022-11-06T23:04:20.917Z,97475.56
2022-11-06T23:06:49.158Z,97480.31
2022-11-06T23:09:17.025Z,97482.28
2022-11-06T23:11:46.162Z,97483.94
2022-11-06T23:14:19.381Z,97481.44
2022-11-06T23:17:00.308Z,97483.25
2022-11-06T23:19:30.196Z,97485.34
2022-11-06T23:22:19.578Z,97489.53
2022-11-06T23:24:48.125Z,97493.97
2022-11-06T23:27:17.759Z,97496.44
2022-11-06T23:29:45.939Z,97493.16
2022-11-06T23:32:14.438Z,97499.69
2022-11-06T23:34:42.368Z,97495.78
2022-11-06T23:37:12.008Z,97497.00
2022-11-06T23:39:40.472Z,97497.81
2022-11-06T23:42:08.159Z,97499.09
2022-11-06T23:44:55.620Z,97506.06
2022-11-06T23:47:26.908Z,97511.34
2022-11-06T23:49:57.167Z,97510.94
2022-11-06T23:52:27.285Z,97524.13
2022-11-06T23:54:56.161Z,97523.47
2022-11-06T23:57:24.615Z,97515.97
2022-11-06T23:59:54.135Z,97526.66
